Time;durP1;ratioP1;P1;durP2;ratioP2;P2;SDS_P1;SDS_P2;PMS_P1;PMS_P2;Temp;Humidity;BMP_temperature;BMP_pressure;BME280_temperature;BME280_humidity;BME280_pressure;Samples;Min_cycle;Max_cycle;Signal;HPM_P1;HPM_P2
2022/10/31 00:01:22;;;;;;;10.48;2.10;;;;;;;16.45;44.17;99907.41;3141227;28;20044;-64
2022/10/31 00:02:54;;;;;;;6.20;2.10;;;;;;;16.57;44.23;99921.50;3132568;28;20048;-65
2022/10/31 00:04:26;;;;;;;4.75;1.80;;;;;;;16.58;44.27;99916.13;3132055;28;20512;-65
2022/10/31 00:05:57;;;;;;;5.25;1.90;;;;;;;16.64;44.13;99919.28;3132102;28;20126;-65
2022/10/31 00:07:31;;;;;;;4.72;1.58;;;;;;;16.65;44.16;99916.53;3131927;28;20079;-65
2022/10/31 00:09:04;;;;;;;5.75;2.05;;;;;;;16.69;44.09;99918.03;3140281;28;20053;-64
2022/10/31 00:10:38;;;;;;;5.47;2.15;;;;;;;16.73;44.18;99919.47;3138905;28;20502;-65
2022/10/31 00:12:10;;;;;;;6.75;2.00;;;;;;;16.68;44.00;99899.69;3135588;28;20052;-64
2022/10/31 00:13:42;;;;;;;9.50;2.00;;;;;;;16.80;43.74;99912.91;3143940;28;20053;-64
2022/10/31 00:15:14;;;;;;;4.35;2.20;;;;;;;16.87;43.69;99920.38;3146241;28;20053;-65
2022/10/31 00:16:46;;;;;;;11.00;2.15;;;;;;;16.89;43.67;99921.94;3136763;28;20063;-64
2022/10/31 00:18:16;;;;;;;11.02;1.90;;;;;;;16.92;43.56;99910.34;3134295;28;20580;-65
2022/10/31 00:19:48;;;;;;;7.30;2.20;;;;;;;16.94;43.62;99913.72;3134550;28;20053;-66
2022/10/31 00:21:20;;;;;;;6.43;2.42;;;;;;;16.96;43.72;99910.03;3134493;28;20053;-65
2022/10/31 00:22:54;;;;;;;4.18;1.83;;;;;;;16.99;43.44;99915.06;3134501;28;20072;-65
2022/10/31 00:24:25;;;;;;;4.60;1.90;;;;;;;16.98;43.59;99904.69;3134794;28;20144;-65
2022/10/31 00:26:01;;;;;;;4.97;2.08;;;;;;;17.01;43.69;99913.19;3134531;28;20048;-65
2022/10/31 00:27:33;;;;;;;7.47;2.00;;;;;;;17.06;43.71;99915.47;3134438;28;20049;-65
2022/10/31 00:29:05;;;;;;;8.23;2.00;;;;;;;17.07;43.59;99906.66;3134347;28;20052;-65
2022/10/31 00:30:36;;;;;;;6.60;1.77;;;;;;;17.15;43.35;99914.00;3134142;28;20049;-65
2022/10/31 00:32:07;;;;;;;5.53;1.88;;;;;;;17.14;43.48;99914.97;3134428;28;20140;-65
2022/10/31 00:33:39;;;;;;;5.95;1.95;;;;;;;17.20;43.16;99917.16;3134239;28;20048;-65
2022/10/31 00:35:11;;;;;;;3.47;1.60;;;;;;;17.21;43.17;99924.09;3134017;28;20057;-65
2022/10/31 00:36:43;;;;;;;6.32;1.77;;;;;;;17.23;43.32;99920.41;3138712;28;20049;-65
2022/10/31 00:38:16;;;;;;;7.25;1.63;;;;;;;17.31;43.04;99919.03;3142895;28;20056;-65
2022/10/31 00:39:49;;;;;;;7.40;1.77;;;;;;;17.31;43.14;99919.88;3143045;28;20044;-66
2022/10/31 00:41:21;;;;;;;4.50;2.10;;;;;;;17.33;43.04;99919.75;3134397;28;20080;-65
2022/10/31 00:42:52;;;;;;;3.60;1.75;;;;;;;17.34;43.05;99922.28;3134124;28;20314;-65
2022/10/31 00:44:23;;;;;;;6.47;2.33;;;;;;;17.36;43.12;99922.16;3134615;28;20049;-65
2022/10/31 00:45:55;;;;;;;5.28;1.90;;;;;;;17.40;42.92;99926.28;3134325;28;20061;-65
2022/10/31 00:47:27;;;;;;;6.70;2.58;;;;;;;17.43;42.98;99924.25;3134134;28;20049;-66
2022/10/31 00:48:59;;;;;;;11.10;2.47;;;;;;;17.46;42.90;99928.47;3134238;28;20072;-66
2022/10/31 00:50:31;;;;;;;4.88;1.83;;;;;;;17.49;42.67;99923.81;3134077;28;20075;-66
2022/10/31 00:52:03;;;;;;;4.82;1.92;;;;;;;17.48;42.85;99919.50;3133962;28;20140;-65
2022/10/31 00:53:36;;;;;;;8.07;1.70;;;;;;;17.51;42.92;99916.66;3135437;28;20079;-66
2022/10/31 00:55:07;;;;;;;9.57;2.20;;;;;;;17.55;42.69;99917.25;3142312;28;20037;-66
2022/10/31 00:56:39;;;;;;;8.20;2.92;;;;;;;17.58;42.73;99909.13;3152963;28;20130;-65
2022/10/31 00:58:11;;;;;;;11.70;2.65;;;;;;;17.59;42.99;99912.59;3134046;28;20059;-65
2022/10/31 00:59:43;;;;;;;6.32;1.90;;;;;;;17.58;42.70;99905.66;3134096;28;20053;-65
2022/10/31 01:01:15;;;;;;;7.53;2.22;;;;;;;17.67;42.92;99912.91;3142945;28;20052;-65
2022/10/31 01:02:46;;;;;;;6.13;2.13;;;;;;;17.67;42.91;99915.53;3135337;28;20053;-65
2022/10/31 01:04:18;;;;;;;5.18;1.70;;;;;;;17.70;42.84;99910.03;3134046;28;20049;-65
2022/10/31 01:05:58;;;;;;;6.80;2.10;;;;;;;17.79;42.61;99911.19;3133901;28;20431;-65
2022/10/31 01:07:30;;;;;;;11.02;1.65;;;;;;;17.83;42.62;99904.75;3133550;28;20446;-65
2022/10/31 01:09:03;;;;;;;8.23;1.92;;;;;;;17.86;42.50;99909.78;3144260;28;20056;-65
2022/10/31 01:10:34;;;;;;;6.60;1.88;;;;;;;17.89;42.24;99909.56;3141073;28;20045;-66
2022/10/31 01:12:06;;;;;;;4.90;1.90;;;;;;;17.93;42.33;99905.75;3137583;28;20118;-65
2022/10/31 01:13:38;;;;;;;5.97;1.80;;;;;;;17.92;42.47;99899.66;3133950;28;20053;-66
2022/10/31 01:15:11;;;;;;;7.15;2.05;;;;;;;17.82;42.23;99874.94;3144625;28;20465;-66
2022/10/31 01:16:42;;;;;;;8.18;1.85;;;;;;;18.01;42.02;99900.72;3136442;28;20049;-65
2022/10/31 01:18:14;;;;;;;6.65;1.75;;;;;;;18.07;42.07;99902.06;3133824;28;20044;-66
2022/10/31 01:19:46;;;;;;;8.27;2.17;;;;;;;18.12;41.99;99906.03;3133798;28;20079;-65
2022/10/31 01:21:19;;;;;;;7.80;1.75;;;;;;;18.16;41.88;99907.53;3133801;28;20591;-65
2022/10/31 01:22:50;;;;;;;6.40;2.45;;;;;;;18.20;41.89;99908.13;3133719;28;20372;-65
2022/10/31 01:24:24;;;;;;;5.95;1.80;;;;;;;18.22;41.74;99905.34;3133853;28;20118;-65
2022/10/31 01:26:04;;;;;;;;;;;;;;;18.18;41.83;99910.84;3134240;28;20573;-66
2022/10/31 01:27:37;;;;;;;10.27;2.15;;;;;;;18.17;41.68;99901.28;3133562;28;20011;-66
2022/10/31 01:29:09;;;;;;;10.95;2.03;;;;;;;18.24;41.73;99904.28;3133629;28;20111;-65
2022/10/31 01:30:40;;;;;;;4.22;2.20;;;;;;;18.26;41.62;99898.91;3133841;28;20049;-66
2022/10/31 01:32:12;;;;;;;5.82;1.88;;;;;;;18.23;41.44;99885.97;3133644;28;20101;-66
2022/10/31 01:33:44;;;;;;;3.65;1.70;;;;;;;18.33;41.37;99894.84;3143854;28;20048;-66
2022/10/31 01:35:16;;;;;;;3.88;1.60;;;;;;;18.34;41.38;99894.75;3137304;28;20147;-65
2022/10/31 01:36:50;;;;;;;4.65;1.75;;;;;;;18.34;41.39;99888.63;3133586;28;20418;-66
2022/10/31 01:38:23;;;;;;;4.80;1.90;;;;;;;18.38;41.08;99890.91;3141221;28;20045;-66
2022/10/31 01:39:56;;;;;;;5.90;1.52;;;;;;;18.39;41.46;99887.31;3141356;28;20506;-66
2022/10/31 01:41:30;;;;;;;8.40;2.50;;;;;;;18.39;41.29;99895.22;3133503;28;20059;-65
2022/10/31 01:43:01;;;;;;;12.63;1.75;;;;;;;18.44;41.05;99896.69;3133531;28;20053;-66
2022/10/31 01:44:54;;;;;;;9.30;1.95;;;;;;;18.50;41.20;99896.22;3133554;28;20082;-66
2022/10/31 01:46:30;;;;;;;4.07;1.98;;;;;;;18.48;41.05;99893.66;3133341;28;20543;-66
2022/10/31 01:48:01;;;;;;;5.88;1.67;;;;;;;18.52;41.13;99902.22;3133402;28;20433;-66
2022/10/31 01:49:38;;;;;;;6.38;1.83;;;;;;;18.57;40.84;99892.13;3133348;28;20053;-65
2022/10/31 01:51:13;;;;;;;5.75;1.75;;;;;;;18.56;41.01;99901.84;3133536;28;20061;-66
2022/10/31 01:52:48;;;;;;;8.13;1.63;;;;;;;18.59;40.97;99895.50;3154661;28;20063;-66
2022/10/31 01:54:24;;;;;;;4.28;1.95;;;;;;;18.58;40.92;99896.47;3142625;28;20074;-66
2022/10/31 01:55:57;;;;;;;4.72;1.75;;;;;;;18.59;40.98;99898.13;3135368;28;20073;-66
2022/10/31 01:57:31;;;;;;;3.72;1.63;;;;;;;18.64;40.76;99906.53;3133400;28;20052;-66
2022/10/31 01:59:08;;;;;;;5.78;2.55;;;;;;;18.68;40.81;99913.25;3133551;28;20053;-65
2022/10/31 02:00:41;;;;;;;5.63;2.05;;;;;;;18.69;40.68;99906.16;3137358;28;20525;-65
2022/10/31 02:02:14;;;;;;;4.30;1.50;;;;;;;18.69;40.53;99895.63;3139062;28;20379;-66
2022/10/31 02:03:47;;;;;;;9.20;1.77;;;;;;;18.72;40.50;99903.28;3133511;28;20096;-65
2022/10/31 02:05:23;;;;;;;5.78;1.98;;;;;;;18.77;40.41;99898.53;3134598;28;20306;-66
2022/10/31 02:06:59;;;;;;;11.68;1.95;;;;;;;18.78;40.34;99893.16;3132977;28;20086;-66
2022/10/31 02:08:33;;;;;;;8.07;1.95;;;;;;;18.78;40.31;99898.44;3138355;28;20060;-66
2022/10/31 02:10:05;;;;;;;9.93;2.03;;;;;;;18.76;40.44;99889.78;3143324;28;20078;-65
2022/10/31 02:11:38;;;;;;;13.15;2.10;;;;;;;18.77;40.50;99890.63;3135671;28;20064;-66
2022/10/31 02:13:09;;;;;;;6.38;1.70;;;;;;;18.78;40.28;99889.66;3135118;28;20103;-65
2022/10/31 02:14:41;;;;;;;3.83;1.70;;;;;;;18.79;40.34;99886.06;3140293;28;20052;-66
2022/10/31 02:16:13;;;;;;;6.43;2.25;;;;;;;18.84;40.24;99886.53;3140007;28;20049;-66
2022/10/31 02:17:45;;;;;;;7.03;2.00;;;;;;;18.86;40.12;99885.47;3133161;28;20134;-66
2022/10/31 02:19:27;;;;;;;8.23;2.00;;;;;;;18.90;40.14;99882.59;3133055;28;20195;-66
2022/10/31 02:21:07;;;;;;;5.63;2.28;;;;;;;18.89;40.09;99873.84;3132941;28;20045;-66
2022/10/31 02:22:46;;;;;;;11.07;1.80;;;;;;;18.89;39.93;99871.19;3133276;28;20054;-66
2022/10/31 02:24:45;;;;;;;11.52;2.13;;;;;;;18.84;40.02;99854.88;3133143;28;20053;-66
2022/10/31 02:26:53;;;;;;;8.70;1.80;;;;;;;18.76;40.13;99867.84;3132934;28;20044;-66
2022/10/31 02:28:44;;;;;;;3.72;1.70;;;;;;;18.83;40.09;99875.16;3131815;28;20056;-66
2022/10/31 02:30:19;;;;;;;6.72;2.83;;;;;;;18.86;39.97;99869.63;3134262;28;20114;-66
2022/10/31 02:32:01;;;;;;;17.63;2.20;;;;;;;18.82;40.07;99873.47;3133047;28;20053;-66
2022/10/31 02:33:41;;;;;;;7.95;1.90;;;;;;;18.84;40.05;99871.56;3132801;28;20052;-66
2022/10/31 02:35:25;;;;;;;12.23;2.03;;;;;;;18.84;40.11;99870.72;3132250;28;20498;-65
2022/10/31 02:37:02;;;;;;;9.63;1.83;;;;;;;18.90;39.98;99874.66;3133171;28;20056;-66
2022/10/31 02:38:48;;;;;;;5.50;1.95;;;;;;;18.91;39.95;99871.09;3136713;28;20089;-66
2022/10/31 02:40:26;;;;;;;5.93;2.33;;;;;;;18.91;39.92;99876.38;3136977;28;20660;-66
2022/10/31 02:42:06;;;;;;;7.65;1.70;;;;;;;18.79;39.93;99857.88;3132957;28;20094;-66
2022/10/31 02:43:45;;;;;;;7.50;2.03;;;;;;;18.97;39.89;99878.50;3132915;28;20056;-66
2022/10/31 02:45:25;;;;;;;7.05;1.60;;;;;;;18.92;39.83;99865.66;3132893;28;20056;-66
2022/10/31 02:47:02;;;;;;;15.80;2.00;;;;;;;19.03;39.80;99884.16;3132819;28;20048;-66
2022/10/31 02:48:36;;;;;;;10.15;3.10;;;;;;;19.05;39.73;99889.31;3134832;28;20048;-65
2022/10/31 02:50:13;;;;;;;9.05;1.55;;;;;;;19.04;39.62;99879.69;3132540;28;20060;-66
2022/10/31 02:51:46;;;;;;;6.28;1.92;;;;;;;19.04;39.71;99891.09;3132809;28;20739;-65
2022/10/31 02:53:18;;;;;;;6.57;1.83;;;;;;;19.10;39.66;99892.41;3132634;28;20076;-66
2022/10/31 02:54:50;;;;;;;7.70;1.65;;;;;;;19.16;39.49;99891.09;3143040;28;20048;-66
2022/10/31 02:56:22;;;;;;;11.25;2.38;;;;;;;19.19;39.43;99904.88;3132561;28;20049;-64
2022/10/31 02:57:57;;;;;;;8.95;2.40;;;;;;;19.22;39.45;99909.06;3132491;28;20056;-64
2022/10/31 02:59:32;;;;;;;7.55;1.73;;;;;;;19.20;39.48;99909.22;3132559;28;20053;-64
2022/10/31 03:01:35;;;;;;;11.82;2.28;;;;;;;19.17;39.64;99895.44;3139435;28;20131;-65
2022/10/31 03:03:15;;;;;;;6.07;2.03;;;;;;;19.16;39.44;99899.84;3132599;28;20654;-65
2022/10/31 03:05:13;;;;;;;6.68;1.58;;;;;;;19.23;39.26;99905.50;3132583;28;20049;-65
2022/10/31 03:06:53;;;;;;;8.80;1.90;;;;;;;19.20;39.54;99898.66;3135279;28;20051;-65
2022/10/31 03:08:33;;;;;;;6.43;2.00;;;;;;;19.23;39.63;99903.69;3137740;28;20612;-65
2022/10/31 03:10:15;;;;;;;14.27;2.50;;;;;;;19.24;39.44;99901.88;3142403;28;20055;-65
2022/10/31 03:11:58;;;;;;;4.72;1.63;;;;;;;19.28;39.45;99912.06;3136335;28;20044;-64
2022/10/31 03:13:36;;;;;;;3.67;1.90;;;;;;;19.31;39.38;99910.97;3132191;28;20114;-64
2022/10/31 03:15:14;;;;;;;6.38;1.60;;;;;;;19.29;39.22;99897.91;3143282;28;20063;-64
2022/10/31 03:16:48;;;;;;;8.43;1.73;;;;;;;19.35;39.20;99906.31;3134630;28;20154;-64
2022/10/31 03:18:29;;;;;;;9.63;1.90;;;;;;;19.42;39.05;99913.59;3132107;28;20044;-64
2022/10/31 03:20:03;;;;;;;4.50;1.52;;;;;;;19.43;39.19;99917.09;3132395;28;20053;-65
2022/10/31 03:21:40;;;;;;;3.95;1.55;;;;;;;19.43;39.28;99925.00;3132063;28;20403;-65
2022/10/31 03:23:16;;;;;;;15.70;2.25;;;;;;;19.44;39.22;99916.13;3132182;28;20053;-65
2022/10/31 03:24:49;;;;;;;6.95;1.88;;;;;;;19.43;39.14;99928.50;3132679;28;20106;-65
2022/10/31 03:26:23;;;;;;;4.18;2.00;;;;;;;19.48;39.06;99923.69;3136549;28;20084;-65
2022/10/31 03:27:55;;;;;;;3.00;1.30;;;;;;;19.51;39.00;99927.88;3132421;28;20052;-65
2022/10/31 03:29:31;;;;;;;5.45;1.90;;;;;;;19.52;38.88;99929.53;3137297;28;20044;-65
2022/10/31 03:31:05;;;;;;;5.68;1.92;;;;;;;19.56;38.98;99941.56;3132456;28;20049;-64
2022/10/31 03:32:42;;;;;;;6.22;2.28;;;;;;;19.39;38.83;99921.78;3132055;28;20534;-65
2022/10/31 03:34:18;;;;;;;5.13;2.15;;;;;;;19.58;38.90;99944.94;3132346;28;20041;-65
2022/10/31 03:35:54;;;;;;;7.93;1.85;;;;;;;19.58;38.87;99942.28;3132066;28;20552;-64
2022/10/31 03:37:31;;;;;;;11.75;2.75;;;;;;;19.55;38.86;99942.50;3132400;28;20069;-65
2022/10/31 03:39:06;;;;;;;4.88;1.80;;;;;;;19.55;38.79;99953.06;3140267;28;20048;-65
2022/10/31 03:40:41;;;;;;;7.07;2.20;;;;;;;19.57;38.72;99953.78;3135011;28;20445;-64
2022/10/31 03:42:16;;;;;;;8.63;2.22;;;;;;;19.54;38.84;99948.75;3134695;28;20049;-65
2022/10/31 03:43:56;;;;;;;8.20;2.15;;;;;;;19.59;38.83;99954.53;3132323;28;20052;-65
2022/10/31 03:45:31;;;;;;;6.00;2.22;;;;;;;19.57;38.84;99953.78;3132306;28;20411;-64
2022/10/31 03:47:03;;;;;;;6.60;1.75;;;;;;;19.60;38.91;99956.19;3132118;28;20529;-65
2022/10/31 03:48:36;;;;;;;6.28;1.83;;;;;;;19.61;38.72;99957.91;3134916;28;20099;-65
2022/10/31 03:50:11;;;;;;;6.65;1.42;;;;;;;19.54;38.89;99943.47;3134910;28;20060;-65
2022/10/31 03:51:46;;;;;;;4.82;1.90;;;;;;;19.60;38.63;99950.91;3134687;28;20510;-65
2022/10/31 03:53:24;;;;;;;5.05;1.98;;;;;;;19.60;38.93;99958.84;3134652;28;20045;-65
2022/10/31 03:55:00;;;;;;;5.97;2.00;;;;;;;19.60;38.73;99963.28;3134610;28;20609;-64
2022/10/31 03:56:37;;;;;;;6.75;2.00;;;;;;;19.60;38.83;99965.94;3134819;28;20060;-64
2022/10/31 03:58:13;;;;;;;3.75;1.60;;;;;;;19.60;38.79;99969.41;3141975;28;20517;-64
2022/10/31 03:59:49;;;;;;;7.85;2.33;;;;;;;19.59;38.86;99973.00;3134701;28;20049;-65
2022/10/31 04:01:22;;;;;;;5.90;1.65;;;;;;;19.58;38.92;99965.19;3144322;28;20131;-65
2022/10/31 04:02:59;;;;;;;7.88;1.90;;;;;;;19.49;38.88;99962.34;3137378;28;20048;-64
2022/10/31 04:04:31;;;;;;;7.65;2.08;;;;;;;19.51;38.99;99967.50;3135770;28;20060;-64
2022/10/31 04:06:09;;;;;;;7.55;2.40;;;;;;;19.50;38.95;99968.47;3134463;28;20053;-64
2022/10/31 04:07:45;;;;;;;6.30;2.10;;;;;;;19.44;39.17;99963.69;3135085;28;20048;-65
2022/10/31 04:09:20;;;;;;;5.22;1.70;;;;;;;19.44;39.06;99967.16;3142868;28;20514;-65
2022/10/31 04:10:52;;;;;;;6.82;2.03;;;;;;;19.43;39.07;99968.13;3139594;28;20072;-65
2022/10/31 04:12:26;;;;;;;4.78;1.88;;;;;;;19.41;39.35;99962.13;3138066;28;20049;-66
2022/10/31 04:14:03;;;;;;;11.32;2.28;;;;;;;19.38;39.19;99967.63;3135377;28;20098;-65
2022/10/31 04:15:37;;;;;;;8.05;1.73;;;;;;;19.36;38.90;99963.44;3146393;28;20071;-65
2022/10/31 04:17:12;;;;;;;8.52;1.67;;;;;;;19.33;39.26;99967.16;3134424;28;20454;-65
2022/10/31 04:18:44;;;;;;;10.50;2.65;;;;;;;19.19;39.24;99955.03;3134501;28;20071;-65
2022/10/31 04:20:17;;;;;;;6.32;2.35;;;;;;;19.25;39.51;99978.31;3134303;28;20053;-65
2022/10/31 04:21:49;;;;;;;6.90;1.67;;;;;;;19.25;39.51;99982.75;3136615;28;21111;-65
2022/10/31 04:23:25;;;;;;;6.65;1.95;;;;;;;19.21;39.55;99976.88;3138470;28;20433;-65
2022/10/31 04:24:56;;;;;;;7.10;2.20;;;;;;;19.19;39.44;99978.78;3134404;28;20060;-65
2022/10/31 04:26:28;;;;;;;6.88;1.85;;;;;;;19.19;39.50;99975.31;3134214;28;20135;-65
2022/10/31 04:28:00;;;;;;;9.38;2.17;;;;;;;19.18;39.48;99981.56;3134544;28;20075;-65
2022/10/31 04:29:32;;;;;;;8.68;2.58;;;;;;;19.05;39.63;99973.78;3139155;28;20071;-65
2022/10/31 04:31:04;;;;;;;8.52;1.95;;;;;;;19.13;39.50;99981.06;3134461;28;20049;-64
2022/10/31 04:32:35;;;;;;;9.43;2.60;;;;;;;19.06;39.68;99986.84;3134120;28;20067;-65
2022/10/31 04:34:08;;;;;;;8.30;2.00;;;;;;;19.03;39.94;99979.16;3134355;28;20049;-65
2022/10/31 04:35:39;;;;;;;4.82;2.25;;;;;;;18.98;39.95;99983.09;3134529;28;20139;-65
2022/10/31 04:37:12;;;;;;;7.43;1.60;;;;;;;18.93;40.23;99978.19;3134287;28;20065;-65
2022/10/31 04:38:43;;;;;;;9.02;1.88;;;;;;;18.86;40.16;99977.81;3139422;28;20040;-65
2022/10/31 04:40:14;;;;;;;8.07;1.80;;;;;;;18.77;40.40;99972.41;3139836;28;20051;-65
2022/10/31 04:41:46;;;;;;;4.97;1.90;;;;;;;18.82;40.37;99991.38;3147025;28;20114;-65
2022/10/31 04:43:18;;;;;;;10.93;2.40;;;;;;;18.78;40.57;99987.28;3134085;28;20049;-65
2022/10/31 04:44:50;;;;;;;3.65;1.92;;;;;;;18.79;40.43;99992.44;3133890;28;20075;-65
2022/10/31 04:46:21;;;;;;;12.80;3.17;;;;;;;18.81;40.20;99989.69;3134380;28;20107;-65
2022/10/31 04:47:53;;;;;;;8.32;1.77;;;;;;;18.75;40.41;99984.88;3134262;28;20049;-64
2022/10/31 04:49:24;;;;;;;8.23;2.30;;;;;;;18.81;40.42;99997.59;3134104;28;20449;-65
2022/10/31 04:51:00;;;;;;;9.98;2.83;;;;;;;18.83;40.25;100004.44;3134223;28;20102;-65
2022/10/31 04:52:34;;;;;;;11.32;2.58;;;;;;;18.82;40.31;100004.56;3134015;28;20136;-65
2022/10/31 04:54:06;;;;;;;7.18;1.98;;;;;;;18.83;40.39;100014.16;3139664;28;20064;-65
2022/10/31 04:55:37;;;;;;;13.02;2.33;;;;;;;18.72;40.26;99993.81;3138366;28;20132;-65
2022/10/31 04:57:08;;;;;;;6.45;2.65;;;;;;;18.82;40.17;100015.97;3133965;28;20503;-65
2022/10/31 04:58:40;;;;;;;9.55;2.22;;;;;;;18.83;40.41;100017.63;3133589;28;20364;-65
2022/10/31 05:00:13;;;;;;;6.65;2.95;;;;;;;18.71;40.34;100007.97;3133924;28;20098;-65
2022/10/31 05:01:45;;;;;;;14.30;2.63;;;;;;;18.82;40.36;100028.31;3143910;28;20049;-65
2022/10/31 05:03:17;;;;;;;6.43;2.20;;;;;;;18.79;40.43;100025.91;3140022;28;20048;-65
2022/10/31 05:04:48;;;;;;;7.93;2.20;;;;;;;18.79;40.62;100028.53;3134196;28;20060;-65
2022/10/31 05:06:19;;;;;;;9.55;2.00;;;;;;;18.76;40.59;100020.88;3133699;28;20060;-65
2022/10/31 05:07:53;;;;;;;7.70;2.42;;;;;;;18.74;40.50;100022.78;3136039;28;20442;-65
2022/10/31 05:09:25;;;;;;;9.10;2.03;;;;;;;18.73;40.66;100024.56;3142415;28;20098;-64
2022/10/31 05:11:01;;;;;;;14.40;2.05;;;;;;;18.77;40.73;100027.81;3138003;28;20584;-65
2022/10/31 05:12:33;;;;;;;10.07;2.85;;;;;;;18.75;40.50;100032.34;3133784;28;20131;-66
2022/10/31 05:14:04;;;;;;;7.90;2.20;;;;;;;18.76;40.72;100034.06;3135894;28;20066;-66
2022/10/31 05:15:36;;;;;;;7.78;1.88;;;;;;;18.78;40.61;100034.75;3145916;28;20102;-65
2022/10/31 05:17:08;;;;;;;4.55;2.03;;;;;;;18.75;40.88;100033.22;3134099;28;20068;-65
2022/10/31 05:18:40;;;;;;;8.00;2.13;;;;;;;18.73;40.92;100032.47;3141543;28;20489;-66
2022/10/31 05:20:11;;;;;;;12.18;2.30;;;;;;;18.74;40.97;100036.78;3135682;28;20053;-66
2022/10/31 05:21:43;;;;;;;9.98;2.55;;;;;;;18.74;40.94;100043.88;3134174;28;20097;-65
2022/10/31 05:23:16;;;;;;;11.00;2.28;;;;;;;18.72;40.78;100037.84;3133730;28;20099;-64
2022/10/31 05:24:48;;;;;;;7.22;2.17;;;;;;;18.76;40.80;100048.09;3134095;28;20083;-65
2022/10/31 05:26:20;;;;;;;7.38;2.20;;;;;;;18.74;40.86;100046.50;3133721;28;20788;-66
2022/10/31 05:27:53;;;;;;;6.95;2.30;;;;;;;18.76;40.83;100042.81;3133896;28;20136;-65
2022/10/31 05:29:24;;;;;;;6.43;2.43;;;;;;;18.77;41.06;100055.03;3138448;28;20587;-66
2022/10/31 05:30:56;;;;;;;8.55;2.55;;;;;;;18.76;40.79;100050.72;3133607;28;20827;-66
2022/10/31 05:32:29;;;;;;;9.88;2.03;;;;;;;18.80;40.95;100053.97;3133795;28;20057;-65
2022/10/31 05:34:01;;;;;;;9.23;2.40;;;;;;;18.81;41.04;100056.50;3133966;28;20056;-65
2022/10/31 05:35:33;;;;;;;10.15;2.20;;;;;;;18.82;41.09;100054.69;3133357;28;20061;-66
2022/10/31 05:37:05;;;;;;;6.55;2.28;;;;;;;18.77;41.16;100049.75;3143950;28;20051;-66
2022/10/31 05:38:38;;;;;;;5.38;2.15;;;;;;;18.80;41.03;100046.88;3148700;28;20051;-66
2022/10/31 05:40:11;;;;;;;14.85;2.22;;;;;;;18.83;41.01;100054.56;3139460;28;20126;-66
2022/10/31 05:41:42;;;;;;;7.38;2.28;;;;;;;18.85;41.00;100062.38;3133796;28;20053;-66
2022/10/31 05:43:13;;;;;;;8.98;2.20;;;;;;;18.89;40.84;100069.09;3133549;28;20041;-66
2022/10/31 05:44:45;;;;;;;16.95;2.30;;;;;;;18.92;41.06;100066.22;3133871;28;20057;-64
2022/10/31 05:46:16;;;;;;;8.52;2.33;;;;;;;18.92;40.94;100068.03;3133525;28;20121;-64
2022/10/31 05:47:52;;;;;;;11.10;1.98;;;;;;;18.94;40.92;100071.41;3133618;28;20053;-65
2022/10/31 05:49:24;;;;;;;8.63;2.30;;;;;;;18.96;41.07;100069.47;3133590;28;20463;-66
2022/10/31 05:50:55;;;;;;;11.02;1.95;;;;;;;18.98;41.15;100072.84;3144102;28;20122;-67
2022/10/31 05:52:27;;;;;;;11.32;2.55;;;;;;;18.93;41.09;100062.66;3135853;28;20554;-66
2022/10/31 05:54:00;;;;;;;5.15;2.67;;;;;;;18.91;41.19;100075.09;3138287;28;20041;-66
2022/10/31 05:55:33;;;;;;;9.10;3.10;;;;;;;18.95;41.22;100079.19;3138261;28;20060;-65
2022/10/31 05:57:04;;;;;;;6.60;2.20;;;;;;;18.96;41.25;100082.66;3133775;28;20098;-66
2022/10/31 05:58:35;;;;;;;6.93;2.00;;;;;;;18.93;41.35;100075.84;3133344;28;20182;-65
2022/10/31 06:00:09;;;;;;;8.15;2.22;;;;;;;18.96;41.38;100075.63;3133379;28;20114;-64
2022/10/31 06:01:41;;;;;;;7.78;2.08;;;;;;;18.98;41.30;100083.41;3143951;28;20064;-65
2022/10/31 06:03:12;;;;;;;8.10;2.60;;;;;;;19.03;41.17;100082.09;3139513;28;20040;-65
2022/10/31 06:04:43;;;;;;;9.65;2.20;;;;;;;19.06;41.16;100081.03;3133441;28;20102;-64
2022/10/31 06:06:15;;;;;;;5.38;2.22;;;;;;;19.10;41.27;100091.22;3132914;28;20068;-65
2022/10/31 06:07:46;;;;;;;11.45;2.40;;;;;;;19.13;41.25;100092.78;3134749;28;20122;-65
2022/10/31 06:09:20;;;;;;;13.43;3.05;;;;;;;19.14;41.31;100096.25;3141718;28;20045;-65
2022/10/31 06:10:53;;;;;;;13.18;2.70;;;;;;;19.18;41.13;100097.72;3138194;28;20060;-65
2022/10/31 06:12:25;;;;;;;12.05;3.20;;;;;;;19.23;40.95;100093.78;3139327;28;20049;-65
2022/10/31 06:13:57;;;;;;;4.93;2.33;;;;;;;19.31;40.86;100098.47;3132998;28;20099;-65
2022/10/31 06:15:29;;;;;;;12.60;2.80;;;;;;;19.35;40.91;100097.28;3145517;28;20053;-65
2022/10/31 06:17:00;;;;;;;11.60;2.92;;;;;;;19.39;40.79;100097.88;3133411;28;20443;-64
2022/10/31 06:18:32;;;;;;;14.27;2.60;;;;;;;19.44;40.80;100098.38;3132895;28;20776;-64
2022/10/31 06:20:05;;;;;;;18.08;2.75;;;;;;;19.48;40.75;100100.63;3133268;28;20052;-64
2022/10/31 06:21:36;;;;;;;11.77;2.80;;;;;;;19.49;40.78;100104.13;3132886;28;20048;-64
2022/10/31 06:23:08;;;;;;;6.85;2.45;;;;;;;19.54;40.77;100101.97;3133180;28;20194;-65
2022/10/31 06:24:41;;;;;;;14.35;2.78;;;;;;;19.56;40.70;100100.06;3133210;28;20053;-64
2022/10/31 06:26:13;;;;;;;11.40;2.47;;;;;;;19.54;40.71;100099.31;3132947;28;20048;-64
2022/10/31 06:27:44;;;;;;;9.55;3.10;;;;;;;19.58;40.71;100100.78;3133011;28;20051;-65
2022/10/31 06:29:16;;;;;;;10.85;2.22;;;;;;;19.64;40.62;100102.94;3137645;28;20048;-65
2022/10/31 06:30:48;;;;;;;7.50;2.08;;;;;;;19.71;40.37;100109.47;3132971;28;20052;-65
2022/10/31 06:32:20;;;;;;;18.75;2.58;;;;;;;19.89;40.49;100108.97;3133008;28;20057;-65
2022/10/31 06:33:51;;;;;;;11.50;2.55;;;;;;;20.63;40.10;100110.03;3151879;28;20104;-65
2022/10/31 06:35:23;;;;;;;6.47;2.95;;;;;;;21.79;38.23;100106.44;3138551;28;20065;-65
2022/10/31 06:36:55;;;;;;;11.52;2.67;;;;;;;22.97;36.74;100106.53;3133044;28;20056;-65
2022/10/31 06:38:28;;;;;;;6.18;2.08;;;;;;;24.13;35.37;100109.78;3135954;28;20059;-66
2022/10/31 06:40:01;;;;;;;10.05;2.75;;;;;;;25.13;33.33;100109.63;3145355;28;20052;-65
2022/10/31 06:41:33;;;;;;;8.85;2.50;;;;;;;25.87;32.57;100097.56;3141015;28;20139;-66
2022/10/31 06:43:05;;;;;;;17.80;3.42;;;;;;;26.72;31.74;100105.47;3133219;28;20053;-66
2022/10/31 06:44:37;;;;;;;13.68;2.65;;;;;;;27.36;30.16;100113.63;3132934;28;20049;-66
2022/10/31 06:46:08;;;;;;;10.38;3.15;;;;;;;27.79;29.60;100111.50;3135003;28;20111;-66
2022/10/31 06:47:40;;;;;;;13.43;2.63;;;;;;;28.09;28.63;100106.34;3133035;28;20060;-66
2022/10/31 06:49:12;;;;;;;16.77;3.97;;;;;;;28.54;28.58;100102.09;3132844;28;20530;-66
2022/10/31 06:50:44;;;;;;;9.55;3.00;;;;;;;29.08;27.90;100110.06;3132971;28;20045;-66
2022/10/31 06:52:16;;;;;;;9.85;3.25;;;;;;;29.42;27.12;100106.03;3132761;28;20049;-65
2022/10/31 06:53:48;;;;;;;20.35;2.53;;;;;;;29.86;26.48;100105.22;3135917;28;20132;-65
2022/10/31 06:55:22;;;;;;;6.57;2.10;;;;;;;30.19;26.18;100096.72;3139937;28;20052;-65
2022/10/31 06:56:54;;;;;;;7.75;2.58;;;;;;;30.66;25.72;100098.06;3132959;28;20052;-65
2022/10/31 06:58:26;;;;;;;15.60;3.17;;;;;;;31.14;25.03;100107.16;3133011;28;20056;-65
2022/10/31 06:59:57;;;;;;;5.20;2.10;;;;;;;31.41;24.65;100104.69;3132834;28;20526;-66
2022/10/31 07:01:28;;;;;;;6.78;3.03;;;;;;;31.72;24.21;100106.94;3143065;28;20048;-66
2022/10/31 07:03:02;;;;;;;9.93;2.63;;;;;;;31.97;23.93;100109.97;3137862;28;20617;-65
2022/10/31 07:04:34;;;;;;;15.00;3.22;;;;;;;32.34;23.46;100111.34;3133359;28;20048;-65
2022/10/31 07:06:06;;;;;;;6.85;2.83;;;;;;;32.68;23.08;100101.44;3133006;28;20059;-65
2022/10/31 07:07:38;;;;;;;9.80;2.47;;;;;;;32.85;22.65;100109.97;3132770;28;20087;-65
2022/10/31 07:09:10;;;;;;;9.30;2.72;;;;;;;32.96;22.69;100101.25;3140975;28;20052;-65
2022/10/31 07:10:51;;;;;;;10.60;2.60;;;;;;;33.16;22.08;100103.13;3142840;28;20102;-65
2022/10/31 07:12:23;;;;;;;8.70;1.98;;;;;;;33.01;21.95;100103.34;3138817;28;20052;-65
2022/10/31 07:13:53;;;;;;;6.85;2.42;;;;;;;33.08;22.17;100101.50;3133160;28;20114;-65
2022/10/31 07:15:26;;;;;;;5.30;2.55;;;;;;;33.22;21.73;100108.53;3145102;28;20056;-65
2022/10/31 07:16:58;;;;;;;7.10;2.72;;;;;;;33.11;21.95;100100.25;3133314;28;20048;-67
2022/10/31 07:18:30;;;;;;;4.75;2.28;;;;;;;33.08;21.73;100104.19;3132925;28;20052;-66
2022/10/31 07:20:02;;;;;;;10.48;2.17;;;;;;;33.04;21.82;100103.78;3141574;28;20049;-66